createdAt,value
2022-08-26T00:02:20.742Z,23.72
2022-08-26T00:05:25.240Z,23.70
2022-08-26T00:08:28.322Z,23.70
2022-08-26T00:11:32.069Z,23.71
2022-08-26T00:14:35.280Z,23.70
2022-08-26T00:17:40.309Z,23.67
2022-08-26T00:20:44.266Z,23.67
2022-08-26T00:23:47.779Z,23.68
2022-08-26T00:26:51.600Z,23.69
2022-08-26T00:29:54.847Z,23.69
2022-08-26T00:32:59.974Z,23.69
2022-08-26T00:36:03.966Z,23.68
2022-08-26T00:39:07.861Z,23.67
2022-08-26T00:42:10.934Z,23.66
2022-08-26T00:45:18.514Z,23.67
2022-08-26T00:48:24.918Z,23.68
2022-08-26T00:51:29.730Z,23.68
2022-08-26T00:54:45.399Z,23.68
2022-08-26T00:57:50.795Z,23.68
2022-08-26T01:00:54.309Z,23.68
2022-08-26T01:03:57.836Z,23.67
2022-08-26T01:07:01.676Z,23.66
2022-08-26T01:10:10.594Z,23.67
2022-08-26T01:13:14.298Z,23.67
2022-08-26T01:16:20.239Z,23.65
2022-08-26T01:19:33.066Z,23.62
2022-08-26T01:22:57.023Z,23.61
2022-08-26T01:26:06.592Z,23.61
2022-08-26T01:29:16.318Z,23.58
2022-08-26T01:32:23.350Z,23.56
2022-08-26T01:35:27.701Z,23.54
2022-08-26T01:38:31.067Z,23.51
2022-08-26T01:41:36.813Z,23.49
2022-08-26T01:44:47.803Z,23.47
2022-08-26T01:47:56.990Z,23.44
2022-08-26T01:51:04.422Z,23.41
2022-08-26T01:54:12.053Z,23.37
2022-08-26T01:57:18.674Z,23.36
2022-08-26T02:00:23.998Z,23.34
2022-08-26T02:03:28.952Z,23.32
2022-08-26T02:06:32.827Z,23.24
2022-08-26T02:09:41.345Z,23.20
2022-08-26T02:12:44.597Z,23.20
2022-08-26T02:15:53.898Z,23.20
2022-08-26T02:18:58.902Z,23.18
2022-08-26T02:22:06.330Z,23.15
2022-08-26T02:25:37.275Z,23.14
2022-08-26T02:29:07.559Z,23.13
2022-08-26T02:32:11.294Z,23.09
2022-08-26T02:35:18.245Z,23.10
2022-08-26T02:38:23.797Z,23.08
2022-08-26T02:41:26.922Z,23.08
2022-08-26T02:44:31.046Z,23.06
2022-08-26T02:47:37.719Z,23.04
2022-08-26T02:50:41.618Z,23.02
2022-08-26T02:53:45.819Z,23.02
2022-08-26T02:56:49.204Z,23.03
2022-08-26T02:59:52.484Z,23.02
2022-08-26T03:02:55.757Z,23.01
2022-08-26T03:05:58.839Z,22.96
2022-08-26T03:09:01.952Z,22.93
2022-08-26T03:12:05.082Z,22.95
2022-08-26T03:15:17.530Z,22.95
2022-08-26T03:18:20.953Z,22.94
2022-08-26T03:21:24.232Z,22.93
2022-08-26T03:24:27.413Z,22.93
2022-08-26T03:27:32.828Z,22.95
2022-08-26T03:30:45.386Z,22.96
2022-08-26T03:33:48.870Z,22.96
2022-08-26T03:36:55.060Z,22.96
2022-08-26T03:39:58.289Z,22.98
2022-08-26T03:43:02.336Z,22.99
2022-08-26T03:46:06.972Z,23.01
2022-08-26T03:49:10.232Z,23.02
2022-08-26T03:52:13.810Z,23.02
2022-08-26T03:55:18.568Z,23.02
2022-08-26T03:58:24.611Z,23.01
2022-08-26T04:01:28.894Z,22.98
2022-08-26T04:04:36.089Z,22.97
2022-08-26T04:07:39.526Z,22.95
2022-08-26T04:10:45.868Z,22.92
2022-08-26T04:13:49.758Z,22.87
2022-08-26T04:16:55.374Z,22.85
2022-08-26T04:19:58.799Z,22.84
2022-08-26T04:23:02.207Z,22.80
2022-08-26T04:26:05.742Z,22.78
2022-08-26T04:29:24.320Z,22.76
2022-08-26T04:32:27.347Z,22.75
2022-08-26T04:35:35.482Z,22.73
2022-08-26T04:38:41.169Z,22.72
2022-08-26T04:41:45.120Z,22.71
2022-08-26T04:44:48.036Z,22.69
2022-08-26T04:47:57.357Z,22.65
2022-08-26T04:51:01.040Z,22.63
2022-08-26T04:54:07.099Z,22.64
2022-08-26T04:57:11.179Z,22.64
2022-08-26T05:00:15.701Z,22.62
2022-08-26T05:03:19.988Z,22.64
2022-08-26T05:06:22.966Z,22.66
2022-08-26T05:09:26.239Z,22.68
2022-08-26T05:12:30.701Z,22.68
2022-08-26T05:15:36.268Z,22.69
2022-08-26T05:18:41.706Z,22.68
2022-08-26T05:21:48.018Z,22.68
2022-08-26T05:24:51.237Z,22.69
2022-08-26T05:28:00.145Z,22.66
2022-08-26T05:31:21.173Z,22.64
2022-08-26T05:34:25.841Z,22.63
2022-08-26T05:37:33.947Z,22.65
2022-08-26T05:40:44.807Z,22.63
2022-08-26T05:43:48.261Z,22.62
2022-08-26T05:46:52.190Z,22.64
2022-08-26T05:49:56.048Z,22.70
2022-08-26T05:52:59.434Z,22.75
2022-08-26T05:56:03.996Z,22.74
2022-08-26T05:59:11.661Z,22.78
2022-08-26T06:02:17.988Z,22.80
2022-08-26T06:05:22.483Z,22.86
2022-08-26T06:08:26.168Z,22.86
2022-08-26T06:11:32.616Z,22.86
2022-08-26T06:14:36.405Z,22.89
2022-08-26T06:17:39.886Z,22.94
2022-08-26T06:20:56.799Z,23.00
2022-08-26T06:24:27.431Z,23.03
2022-08-26T06:27:32.940Z,23.03
2022-08-26T06:30:40.876Z,23.03
2022-08-26T06:33:45.304Z,23.04
2022-08-26T06:36:49.594Z,23.05
2022-08-26T06:39:56.248Z,23.03
2022-08-26T06:43:02.812Z,23.05
2022-08-26T06:46:11.805Z,23.07
2022-08-26T06:49:15.923Z,23.05
2022-08-26T06:52:24.598Z,23.04
2022-08-26T06:55:28.176Z,23.05
2022-08-26T06:58:32.155Z,23.08
2022-08-26T07:01:42.946Z,23.12
2022-08-26T07:04:47.872Z,23.12
2022-08-26T07:07:53.005Z,23.12
2022-08-26T07:10:57.474Z,23.12
2022-08-26T07:14:01.200Z,23.13
2022-08-26T07:17:07.330Z,23.15
2022-08-26T07:20:13.399Z,23.18
2022-08-26T07:23:16.472Z,23.20
2022-08-26T07:26:24.984Z,23.22
2022-08-26T07:29:29.561Z,23.25
2022-08-26T07:32:32.947Z,23.28
2022-08-26T07:35:35.920Z,23.29
2022-08-26T07:38:40.423Z,23.30
2022-08-26T07:41:47.306Z,23.34
2022-08-26T07:44:50.563Z,23.39
2022-08-26T07:47:55.528Z,23.46
2022-08-26T07:55:30.720Z,23.53
2022-08-26T07:58:37.459Z,23.57
2022-08-26T08:01:41.176Z,23.60
2022-08-26T08:04:48.123Z,23.60
2022-08-26T08:12:48.733Z,23.62
2022-08-26T08:15:51.906Z,23.67
2022-08-26T08:18:56.723Z,23.71
2022-08-26T08:22:06.863Z,23.73
2022-08-26T08:25:22.848Z,23.76
2022-08-26T08:28:25.801Z,23.79
2022-08-26T08:31:56.748Z,23.82
2022-08-26T08:34:56.508Z,23.83
2022-08-26T08:37:59.483Z,23.88
2022-08-26T08:41:02.470Z,23.91
2022-08-26T08:47:45.442Z,23.97
2022-08-26T08:50:52.303Z,24.01
2022-08-26T08:53:56.155Z,24.08
2022-08-26T08:57:27.107Z,24.14
2022-08-26T09:00:39.814Z,24.14
2022-08-26T09:04:00.374Z,24.15
2022-08-26T09:07:13.525Z,24.20
2022-08-26T09:10:23.785Z,24.25
2022-08-26T09:13:28.473Z,24.29
2022-08-26T09:16:58.151Z,24.32
2022-08-26T09:20:40.589Z,24.34
2022-08-26T09:23:47.993Z,24.41
2022-08-26T09:26:53.082Z,24.46
2022-08-26T09:29:59.934Z,24.50
2022-08-26T09:33:11.129Z,24.56
2022-08-26T09:36:37.802Z,24.62
2022-08-26T09:39:42.929Z,24.68
2022-08-26T09:42:46.307Z,24.73
2022-08-26T09:46:18.818Z,24.77
2022-08-26T09:49:37.902Z,24.80
2022-08-26T09:52:42.913Z,24.87
2022-08-26T09:55:49.296Z,24.92
2022-08-26T09:58:53.943Z,24.97
2022-08-26T10:02:17.753Z,25.00
2022-08-26T10:05:30.744Z,25.03
2022-08-26T10:08:41.097Z,25.09
2022-08-26T10:11:49.829Z,25.14
2022-08-26T10:14:58.284Z,25.20
2022-08-26T10:18:41.668Z,25.23
2022-08-26T10:22:00.552Z,25.26
2022-08-26T10:25:09.589Z,25.30
2022-08-26T10:28:36.020Z,25.34
2022-08-26T10:31:44.855Z,25.38
2022-08-26T10:34:48.205Z,25.42
2022-08-26T10:38:01.985Z,25.47
2022-08-26T10:41:18.191Z,25.52
2022-08-26T10:44:34.174Z,25.57
2022-08-26T10:47:49.030Z,25.62
2022-08-26T10:50:53.125Z,25.64
2022-08-26T10:54:06.438Z,25.68
2022-08-26T10:57:42.566Z,25.76
2022-08-26T11:01:11.766Z,25.81
2022-08-26T11:04:35.111Z,25.85
2022-08-26T11:07:54.997Z,25.89
2022-08-26T11:11:00.232Z,25.94
2022-08-26T11:14:05.859Z,25.98
2022-08-26T11:17:11.996Z,26.02
2022-08-26T11:20:30.206Z,26.08
2022-08-26T11:23:33.220Z,26.12
2022-08-26T11:26:55.253Z,26.16
2022-08-26T11:30:05.267Z,26.25
2022-08-26T11:33:09.376Z,26.32
2022-08-26T11:36:37.712Z,26.39
2022-08-26T11:39:55.183Z,26.44
2022-08-26T11:43:06.607Z,26.50
2022-08-26T11:46:13.388Z,26.58
2022-08-26T11:49:17.742Z,26.68
2022-08-26T11:52:22.658Z,26.75
2022-08-26T11:55:25.845Z,26.84
2022-08-26T11:58:31.262Z,26.96
2022-08-26T12:01:38.075Z,27.02
2022-08-26T12:04:46.554Z,27.05
2022-08-26T12:07:51.336Z,27.15
2022-08-26T12:11:09.779Z,27.24
2022-08-26T12:14:22.852Z,27.37
2022-08-26T12:17:28.602Z,27.46
2022-08-26T12:20:48.548Z,27.55
2022-08-26T12:23:57.724Z,27.70
2022-08-26T12:27:14.465Z,27.84
2022-08-26T12:30:21.024Z,27.96
2022-08-26T12:33:24.397Z,28.00
2022-08-26T12:36:39.959Z,28.06
2022-08-26T12:39:45.284Z,28.18
2022-08-26T12:42:48.356Z,28.31
2022-08-26T12:46:06.798Z,28.43
2022-08-26T12:49:11.288Z,28.59
2022-08-26T12:53:07.394Z,28.71
2022-08-26T12:56:28.250Z,28.71
2022-08-26T12:59:31.345Z,28.73
2022-08-26T13:02:35.810Z,28.80
2022-08-26T13:05:38.826Z,28.86
2022-08-26T13:08:44.403Z,28.93
2022-08-26T13:11:47.945Z,29.06
2022-08-26T13:14:51.220Z,29.08
2022-08-26T13:17:54.503Z,28.95
2022-08-26T13:21:08.011Z,28.82
2022-08-26T13:24:14.540Z,28.76
2022-08-26T13:27:20.815Z,28.79
2022-08-26T13:30:24.198Z,28.86
2022-08-26T13:33:28.350Z,29.00
2022-08-26T13:36:31.878Z,29.17
2022-08-26T13:39:35.261Z,29.33
2022-08-26T13:42:49.425Z,29.55
2022-08-26T13:45:52.974Z,29.75
2022-08-26T13:48:57.442Z,29.75
2022-08-26T13:52:00.557Z,29.88
2022-08-26T13:55:04.247Z,30.03
2022-08-26T13:58:07.461Z,30.22
2022-08-26T14:01:11.136Z,30.38
2022-08-26T14:04:14.188Z,30.52
2022-08-26T14:07:17.872Z,30.67
2022-08-26T14:10:22.384Z,30.82
2022-08-26T14:13:25.843Z,31.01
2022-08-26T14:16:36.333Z,31.14
2022-08-26T14:19:55.307Z,31.31
2022-08-26T14:23:24.845Z,31.51
2022-08-26T14:26:32.699Z,31.70
2022-08-26T14:29:37.292Z,31.84
2022-08-26T14:32:47.396Z,31.92
2022-08-26T14:35:51.829Z,32.00
2022-08-26T14:39:02.202Z,32.06
2022-08-26T14:42:05.632Z,32.05
2022-08-26T14:45:13.638Z,32.03
2022-08-26T14:48:17.256Z,32.03
2022-08-26T14:51:21.975Z,32.05
2022-08-26T14:54:26.477Z,32.05
2022-08-26T14:57:29.860Z,32.11
2022-08-26T15:00:34.336Z,32.13
2022-08-26T15:03:37.751Z,32.18
2022-08-26T15:06:42.165Z,32.23
2022-08-26T15:09:46.153Z,32.23
2022-08-26T15:12:50.049Z,32.24
2022-08-26T15:15:54.564Z,32.27
2022-08-26T15:18:58.466Z,32.27
2022-08-26T15:22:01.888Z,32.21
2022-08-26T15:25:08.105Z,32.03
2022-08-26T15:28:11.428Z,31.84
2022-08-26T15:31:14.711Z,31.78
2022-08-26T15:34:18.216Z,31.61
2022-08-26T15:37:21.396Z,31.41
2022-08-26T15:40:27.439Z,31.35
2022-08-26T15:43:31.447Z,31.23
2022-08-26T15:46:36.409Z,31.19
2022-08-26T15:49:56.042Z,31.29
2022-08-26T15:53:18.834Z,31.39
2022-08-26T15:56:26.656Z,31.46
2022-08-26T15:59:31.894Z,31.46
2022-08-26T16:02:35.109Z,31.47
2022-08-26T16:05:40.433Z,31.45
2022-08-26T16:08:46.426Z,31.31
2022-08-26T16:11:52.010Z,31.14
2022-08-26T16:14:55.087Z,30.95
2022-08-26T16:17:59.796Z,30.72
2022-08-26T16:21:13.761Z,30.51
2022-08-26T16:24:18.627Z,30.35
2022-08-26T16:27:23.239Z,30.18
2022-08-26T16:30:26.843Z,30.04
2022-08-26T16:33:30.420Z,29.91
2022-08-26T16:36:34.522Z,29.79
2022-08-26T16:39:44.851Z,29.68
2022-08-26T16:42:49.476Z,29.58
2022-08-26T16:46:02.730Z,29.37
2022-08-26T16:49:06.890Z,29.06
2022-08-26T16:52:12.285Z,28.78
2022-08-26T16:55:17.423Z,28.58
2022-08-26T16:58:22.250Z,28.45
2022-08-26T17:01:26.810Z,28.35
2022-08-26T17:04:32.122Z,28.23
2022-08-26T17:07:38.529Z,28.10
2022-08-26T17:13:44.876Z,27.93
2022-08-26T17:16:51.398Z,27.86
2022-08-26T17:19:54.658Z,27.84
2022-08-26T17:22:58.987Z,27.85
2022-08-26T17:26:07.613Z,27.90
2022-08-26T17:29:12.224Z,27.94
2022-08-26T17:32:15.197Z,27.93
2022-08-26T17:35:19.095Z,27.83
2022-08-26T17:38:22.644Z,27.70
2022-08-26T17:41:27.185Z,27.57
2022-08-26T17:44:30.870Z,27.47
2022-08-26T17:47:34.254Z,27.33
2022-08-26T17:50:39.973Z,27.18
2022-08-26T17:53:46.041Z,27.00
2022-08-26T17:56:49.245Z,26.82
2022-08-26T17:59:53.000Z,26.65
2022-08-26T18:02:56.482Z,26.48
2022-08-26T18:05:59.667Z,26.42
2022-08-26T18:09:03.859Z,26.33
2022-08-26T18:12:07.345Z,26.17
2022-08-26T18:15:11.647Z,26.06
2022-08-26T18:18:15.744Z,25.99
2022-08-26T18:21:22.166Z,26.05
2022-08-26T18:24:25.168Z,26.14
2022-08-26T18:27:28.204Z,26.19
2022-08-26T18:30:31.332Z,26.18
2022-08-26T18:33:36.949Z,26.21
2022-08-26T18:36:40.639Z,26.26
2022-08-26T18:39:44.229Z,26.18
2022-08-26T18:42:49.349Z,26.00
2022-08-26T18:46:05.129Z,25.78
2022-08-26T18:49:14.228Z,25.60
2022-08-26T18:52:19.542Z,25.43
2022-08-26T18:55:23.362Z,25.32
2022-08-26T18:58:30.513Z,25.28
2022-08-26T19:01:43.975Z,25.21
2022-08-26T19:04:53.102Z,25.10
2022-08-26T19:07:56.837Z,25.05
2022-08-26T19:11:00.717Z,24.98
2022-08-26T19:14:14.273Z,24.92
2022-08-26T19:17:17.995Z,24.92
2022-08-26T19:20:31.004Z,24.95
2022-08-26T19:23:37.228Z,24.91
2022-08-26T19:26:45.692Z,24.73
2022-08-26T19:29:49.119Z,24.61
2022-08-26T19:32:52.226Z,24.70
2022-08-26T19:35:56.688Z,24.64
2022-08-26T19:39:03.506Z,24.69
2022-08-26T19:42:06.463Z,24.65
2022-08-26T19:45:24.431Z,24.58
2022-08-26T19:48:30.010Z,24.58
2022-08-26T19:51:37.760Z,24.64
2022-08-26T19:54:41.433Z,24.68
2022-08-26T19:57:51.936Z,24.63
2022-08-26T20:00:55.407Z,24.54
2022-08-26T20:04:23.792Z,24.47
2022-08-26T20:07:31.718Z,24.36
2022-08-26T20:10:37.320Z,24.43
2022-08-26T20:13:42.799Z,24.53
2022-08-26T20:16:48.399Z,24.51
2022-08-26T20:20:33.039Z,24.54
2022-08-26T20:23:38.827Z,24.50
2022-08-26T20:26:49.365Z,24.52
2022-08-26T20:29:56.219Z,24.39
2022-08-26T20:33:01.187Z,24.35
2022-08-26T20:36:11.196Z,24.07
2022-08-26T20:39:21.058Z,23.98
2022-08-26T20:42:26.462Z,23.90
2022-08-26T20:45:30.439Z,23.85
2022-08-26T20:48:33.451Z,23.88
2022-08-26T20:51:37.552Z,23.96
2022-08-26T20:54:40.758Z,23.90
2022-08-26T20:57:43.569Z,23.86
2022-08-26T21:00:46.704Z,23.82
2022-08-26T21:03:54.367Z,23.85
2022-08-26T21:06:59.017Z,23.85
2022-08-26T21:10:04.057Z,23.90
2022-08-26T21:13:08.030Z,23.91
2022-08-26T21:16:12.418Z,23.94
2022-08-26T21:19:18.290Z,23.96
2022-08-26T21:22:22.566Z,23.98
2022-08-26T21:25:26.272Z,24.00
2022-08-26T21:28:29.523Z,24.01
2022-08-26T21:31:33.023Z,24.00
2022-08-26T21:34:38.985Z,24.00
2022-08-26T21:37:42.639Z,23.99
2022-08-26T21:40:45.509Z,23.98
2022-08-26T21:43:50.160Z,23.96
2022-08-26T21:46:53.888Z,23.97
2022-08-26T21:49:57.026Z,23.96
2022-08-26T21:53:00.653Z,23.93
2022-08-26T21:56:06.079Z,23.90
2022-08-26T21:59:09.127Z,23.88
2022-08-26T22:02:12.111Z,23.85
2022-08-26T22:05:15.284Z,23.81
2022-08-26T22:08:23.056Z,23.76
2022-08-26T22:11:32.428Z,23.70
2022-08-26T22:14:36.524Z,23.69
2022-08-26T22:17:39.858Z,23.67
2022-08-26T22:20:43.650Z,23.65
2022-08-26T22:23:47.295Z,23.63
2022-08-26T22:26:51.257Z,23.60
2022-08-26T22:29:54.039Z,23.60
2022-08-26T22:32:57.014Z,23.58
2022-08-26T22:35:59.946Z,23.53
2022-08-26T22:39:03.012Z,23.51
2022-08-26T22:42:05.914Z,23.49
2022-08-26T22:45:11.085Z,23.50
2022-08-26T22:48:18.090Z,23.58
2022-08-26T22:51:21.736Z,23.70
2022-08-26T22:54:24.859Z,23.68
2022-08-26T22:57:28.045Z,23.48
2022-08-26T23:00:32.127Z,23.23
2022-08-26T23:03:35.904Z,23.15
2022-08-26T23:06:41.705Z,23.01
2022-08-26T23:09:44.663Z,22.92
2022-08-26T23:12:47.511Z,22.90
2022-08-26T23:16:00.598Z,22.82
2022-08-26T23:19:05.005Z,22.67
2022-08-26T23:22:07.809Z,22.61
2022-08-26T23:25:12.062Z,22.53
2022-08-26T23:28:14.929Z,22.54
2022-08-26T23:31:17.761Z,22.56
2022-08-26T23:34:39.495Z,22.59
2022-08-26T23:37:46.053Z,22.64
2022-08-26T23:40:49.918Z,22.69
2022-08-26T23:43:52.867Z,22.73
2022-08-26T23:46:56.079Z,22.73
2022-08-26T23:49:59.562Z,22.72
2022-08-26T23:53:09.215Z,22.75
2022-08-26T23:56:16.999Z,22.76
2022-08-26T23:59:20.400Z,22.73
